createdAt,value
2023-01-17T00:04:20.648Z,61.67
2023-01-17T00:09:41.009Z,62.24
2023-01-17T00:14:45.220Z,62.38
2023-01-17T00:20:05.636Z,62.65
2023-01-17T00:25:29.448Z,63.09
2023-01-17T00:30:32.565Z,63.34
2023-01-17T00:35:34.680Z,63.34
2023-01-17T00:40:38.188Z,63.75
2023-01-17T00:46:01.364Z,64.13
2023-01-17T00:51:21.694Z,64.38
2023-01-17T00:56:42.235Z,64.71
2023-01-17T01:02:04.031Z,64.83
2023-01-17T01:07:24.442Z,65.18
2023-01-17T01:12:44.814Z,65.32
2023-01-17T01:18:06.428Z,65.71
2023-01-17T01:23:26.541Z,65.83
2023-01-17T01:28:46.901Z,66.25
2023-01-17T01:33:51.676Z,66.08
2023-01-17T01:39:02.877Z,66.58
2023-01-17T01:44:06.110Z,66.53
2023-01-17T01:49:37.014Z,66.68
2023-01-17T01:54:53.551Z,66.98
2023-01-17T02:00:03.783Z,67.37
2023-01-17T02:05:18.091Z,67.41
2023-01-17T02:10:20.948Z,67.87
2023-01-17T02:21:22.909Z,67.94
2023-01-17T02:27:04.473Z,68.12
2023-01-17T02:32:11.639Z,68.38
2023-01-17T02:37:49.104Z,68.33
2023-01-17T02:42:57.063Z,68.79
2023-01-17T02:48:03.744Z,68.86
2023-01-17T02:53:15.795Z,69.05
2023-01-17T02:59:09.518Z,69.38
2023-01-17T03:04:15.662Z,69.20
2023-01-17T03:09:19.026Z,69.26
2023-01-17T03:14:21.719Z,69.64
2023-01-17T03:19:25.884Z,69.35
2023-01-17T03:24:28.665Z,69.47
2023-01-17T03:29:31.368Z,69.61
2023-01-17T03:34:35.515Z,69.98
2023-01-17T03:39:38.163Z,69.90
2023-01-17T03:44:40.862Z,69.95
2023-01-17T03:49:44.969Z,70.25
2023-01-17T03:54:48.533Z,70.05
2023-01-17T03:59:51.370Z,70.46
2023-01-17T04:04:55.567Z,70.20
2023-01-17T04:09:58.296Z,70.32
2023-01-17T04:15:01.061Z,70.43
2023-01-17T04:20:06.115Z,70.45
2023-01-17T04:25:09.717Z,70.87
2023-01-17T04:30:13.378Z,70.99
2023-01-17T04:35:17.712Z,71.04
2023-01-17T04:40:20.726Z,71.14
2023-01-17T04:45:23.482Z,70.99
2023-01-17T04:50:27.789Z,71.37
2023-01-17T04:55:30.461Z,71.05
2023-01-17T05:00:33.206Z,71.17
2023-01-17T05:05:37.268Z,71.25
2023-01-17T05:10:40.042Z,71.28
2023-01-17T05:15:42.995Z,71.28
2023-01-17T05:20:47.055Z,71.74
2023-01-17T05:25:49.773Z,71.39
2023-01-17T05:30:53.128Z,71.52
2023-01-17T05:35:57.226Z,71.71
2023-01-17T05:41:00.566Z,71.63
2023-01-17T05:46:03.270Z,71.80
2023-01-17T05:51:07.905Z,72.02
2023-01-17T05:56:10.583Z,72.14
2023-01-17T06:01:13.451Z,71.75
2023-01-17T06:06:17.860Z,72.00
2023-01-17T06:11:20.665Z,72.21
2023-01-17T06:16:23.419Z,72.53
2023-01-17T06:21:27.531Z,72.43
2023-01-17T06:26:30.254Z,72.25
2023-01-17T06:31:33.085Z,72.57
2023-01-17T06:36:37.274Z,72.64
2023-01-17T06:41:39.979Z,72.77
2023-01-17T06:46:43.394Z,72.51
2023-01-17T06:51:47.489Z,72.82
2023-01-17T06:56:50.145Z,72.65
2023-01-17T07:01:52.920Z,71.33
2023-01-17T07:06:56.978Z,69.97
2023-01-17T07:12:01.937Z,68.59
2023-01-17T07:17:05.385Z,67.40
2023-01-17T07:22:11.138Z,66.47
2023-01-17T07:27:13.829Z,65.46
2023-01-17T07:32:16.519Z,64.74
2023-01-17T07:37:20.940Z,64.26
2023-01-17T07:42:24.415Z,64.12
2023-01-17T07:47:27.183Z,64.14
2023-01-17T07:52:31.236Z,63.64
2023-01-17T07:57:33.915Z,63.85
2023-01-17T08:02:36.560Z,63.56
2023-01-17T08:07:40.669Z,63.49
2023-01-17T08:12:43.311Z,63.78
2023-01-17T08:17:47.434Z,64.48
2023-01-17T08:22:53.617Z,64.73
2023-01-17T08:27:58.274Z,64.87
2023-01-17T08:33:01.599Z,65.14
2023-01-17T08:38:05.989Z,65.21
2023-01-17T08:43:09.613Z,65.58
2023-01-17T08:48:12.478Z,65.74
2023-01-17T08:53:18.033Z,65.91
2023-01-17T08:58:20.721Z,66.19
2023-01-17T09:03:23.449Z,66.00
2023-01-17T09:08:27.549Z,66.38
2023-01-17T09:13:30.248Z,65.84
2023-01-17T09:18:33.909Z,64.15
2023-01-17T09:23:38.047Z,63.10
2023-01-17T09:28:42.637Z,61.42
2023-01-17T09:33:45.414Z,60.74
2023-01-17T09:38:50.317Z,59.91
2023-01-17T09:44:00.975Z,59.07
2023-01-17T09:49:09.063Z,58.85
2023-01-17T09:54:21.372Z,58.97
2023-01-17T09:59:35.610Z,59.01
2023-01-17T10:04:51.860Z,58.61
2023-01-17T10:10:06.179Z,58.63
2023-01-17T10:15:24.131Z,59.26
2023-01-17T10:20:42.103Z,59.18
2023-01-17T10:25:49.602Z,58.63
2023-01-17T10:30:53.586Z,59.02
2023-01-17T10:35:58.352Z,58.56
2023-01-17T10:41:06.956Z,58.43
2023-01-17T10:46:16.009Z,58.29
2023-01-17T10:51:43.069Z,58.15
2023-01-17T10:56:47.179Z,58.04
2023-01-17T11:01:51.275Z,58.38
2023-01-17T11:07:12.672Z,58.49
2023-01-17T11:12:29.381Z,58.24
2023-01-17T11:17:32.556Z,57.87
2023-01-17T11:22:36.125Z,57.76
2023-01-17T11:27:41.839Z,57.93
2023-01-17T11:32:52.995Z,58.22
2023-01-17T11:38:04.568Z,58.37
2023-01-17T11:43:22.359Z,58.60
2023-01-17T11:48:25.004Z,58.30
2023-01-17T11:53:30.406Z,57.96
2023-01-17T11:58:36.339Z,57.69
2023-01-17T12:04:00.102Z,57.67
2023-01-17T12:09:12.093Z,57.52
2023-01-17T12:14:23.615Z,57.72
2023-01-17T12:19:34.565Z,57.59
2023-01-17T12:24:48.999Z,57.73
2023-01-17T12:30:09.372Z,57.73
2023-01-17T12:35:15.341Z,57.52
2023-01-17T12:40:23.866Z,57.38
2023-01-17T12:45:31.997Z,57.04
2023-01-17T12:50:38.363Z,57.43
2023-01-17T12:56:11.953Z,57.10
2023-01-17T13:01:24.400Z,57.40
2023-01-17T13:06:32.858Z,57.50
2023-01-17T13:11:57.281Z,57.78
2023-01-17T13:17:18.728Z,57.52
2023-01-17T13:22:24.031Z,57.12
2023-01-17T13:27:36.487Z,57.54
2023-01-17T13:33:01.531Z,57.93
2023-01-17T13:38:40.113Z,57.79
2023-01-17T13:44:04.975Z,58.20
2023-01-17T13:49:34.868Z,57.72
2023-01-17T13:54:48.612Z,57.79
2023-01-17T14:00:38.852Z,57.50
2023-01-17T14:05:50.038Z,57.92
2023-01-17T14:11:28.692Z,57.97
2023-01-17T14:16:32.155Z,57.83
2023-01-17T14:21:37.454Z,58.38
2023-01-17T14:26:54.209Z,57.64
2023-01-17T14:32:01.799Z,57.75
2023-01-17T14:37:10.545Z,57.44
2023-01-17T14:42:14.962Z,57.31
2023-01-17T14:47:17.932Z,57.41
2023-01-17T14:52:23.754Z,57.34
2023-01-17T14:57:29.123Z,57.97
2023-01-17T15:02:32.443Z,58.46
2023-01-17T15:07:37.925Z,58.56
2023-01-17T15:12:41.014Z,57.75
2023-01-17T15:17:43.740Z,57.43
2023-01-17T15:22:47.806Z,57.48
2023-01-17T15:27:50.613Z,57.45
2023-01-17T15:32:53.439Z,57.37
2023-01-17T15:37:58.187Z,57.65
2023-01-17T15:43:01.918Z,57.95
2023-01-17T15:48:29.864Z,57.82
2023-01-17T15:53:35.974Z,57.94
2023-01-17T15:58:38.726Z,57.76
2023-01-17T16:03:41.469Z,57.43
2023-01-17T16:08:53.062Z,57.46
2023-01-17T16:13:55.790Z,57.83
2023-01-17T16:19:02.895Z,57.67
2023-01-17T16:24:10.982Z,57.72
2023-01-17T16:29:13.848Z,57.99
2023-01-17T16:34:16.842Z,57.98
2023-01-17T16:39:20.936Z,57.89
2023-01-17T16:44:23.722Z,57.72
2023-01-17T16:49:26.735Z,57.67
2023-01-17T16:54:30.894Z,57.46
2023-01-17T16:59:50.614Z,57.44
2023-01-17T17:05:02.121Z,57.27
2023-01-17T17:10:07.185Z,57.48
2023-01-17T17:15:10.681Z,57.66
2023-01-17T17:20:15.701Z,57.38
2023-01-17T17:25:20.061Z,57.74
2023-01-17T17:30:22.742Z,57.00
2023-01-17T17:35:25.480Z,57.30
2023-01-17T17:40:29.554Z,57.36
2023-01-17T17:45:33.352Z,56.83
2023-01-17T17:50:36.040Z,57.15
2023-01-17T17:55:42.784Z,57.17
2023-01-17T18:00:45.474Z,57.34
2023-01-17T18:05:48.255Z,57.07
2023-01-17T18:10:52.349Z,57.16
2023-01-17T18:16:05.491Z,57.60
2023-01-17T18:21:10.094Z,57.07
2023-01-17T18:26:18.493Z,56.95
2023-01-17T18:31:21.590Z,56.98
2023-01-17T18:36:25.289Z,56.86
2023-01-17T18:41:30.879Z,57.03
2023-01-17T18:46:34.140Z,57.21
2023-01-17T18:51:36.849Z,57.02
2023-01-17T18:56:42.301Z,56.96
2023-01-17T19:01:45.095Z,57.11
2023-01-17T19:06:48.735Z,56.74
2023-01-17T19:11:52.926Z,56.68
2023-01-17T19:16:56.143Z,57.03
2023-01-17T19:21:58.820Z,56.82
2023-01-17T19:27:03.647Z,57.56
2023-01-17T19:32:07.350Z,57.91
2023-01-17T19:37:10.037Z,58.03
2023-01-17T19:42:15.653Z,57.76
2023-01-17T19:47:18.453Z,57.05
2023-01-17T19:52:22.187Z,56.18
2023-01-17T19:57:28.939Z,55.91
2023-01-17T20:02:31.695Z,55.18
2023-01-17T20:07:34.684Z,54.76
2023-01-17T20:12:38.952Z,54.74
2023-01-17T20:17:41.626Z,54.39
2023-01-17T20:22:44.575Z,54.32
2023-01-17T20:27:48.832Z,54.48
2023-01-17T20:32:52.200Z,54.63
2023-01-17T20:37:55.233Z,55.54
2023-01-17T20:42:59.512Z,55.11
2023-01-17T20:48:02.266Z,54.84
2023-01-17T20:53:05.262Z,54.42
2023-01-17T20:58:09.300Z,53.77
2023-01-17T21:08:43.102Z,55.11
2023-01-17T21:13:48.580Z,55.23
2023-01-17T21:18:52.493Z,54.72
2023-01-17T21:23:57.298Z,54.91
2023-01-17T21:29:01.906Z,55.51
2023-01-17T21:34:06.481Z,55.39
2023-01-17T21:39:12.261Z,54.82
2023-01-17T21:44:19.642Z,55.34
2023-01-17T21:49:26.098Z,55.29
2023-01-17T21:54:48.124Z,55.28
2023-01-17T21:59:52.533Z,54.56
2023-01-17T22:04:56.288Z,54.89
2023-01-17T22:09:59.061Z,55.12
2023-01-17T22:15:04.086Z,55.14
2023-01-17T22:20:11.476Z,55.25
2023-01-17T22:25:21.280Z,55.13
2023-01-17T22:30:25.428Z,54.89
2023-01-17T22:35:28.203Z,54.68
2023-01-17T22:40:32.574Z,54.94
2023-01-17T22:45:36.786Z,54.76
2023-01-17T22:50:39.511Z,54.65
2023-01-17T22:55:42.243Z,54.06
2023-01-17T23:00:47.382Z,54.46
2023-01-17T23:05:50.147Z,54.31
2023-01-17T23:11:10.225Z,54.17
2023-01-17T23:16:31.702Z,54.08
2023-01-17T23:21:48.368Z,53.97
2023-01-17T23:27:05.103Z,54.02
2023-01-17T23:32:09.138Z,54.58
2023-01-17T23:37:11.908Z,54.65
2023-01-17T23:42:32.124Z,54.64
2023-01-17T23:47:36.209Z,55.01
2023-01-17T23:52:38.883Z,55.03
2023-01-17T23:57:41.591Z,55.12
